sensor_id;sensor_type;location;lat;lon;timestamp;P1;durP1;ratioP1;P2;durP2;ratioP2
12052;SDS011;6087;48.982;12.064;2023-08-06T00:02:25;13.10;;;11.70;;
12052;SDS011;6087;48.982;12.064;2023-08-06T00:04:52;16.75;;;13.30;;
12052;SDS011;6087;48.982;12.064;2023-08-06T00:07:19;13.13;;;11.73;;
12052;SDS011;6087;48.982;12.064;2023-08-06T00:09:47;13.45;;;12.15;;
12052;SDS011;6087;48.982;12.064;2023-08-06T00:12:14;12.80;;;11.50;;
12052;SDS011;6087;48.982;12.064;2023-08-06T00:14:41;9.70;;;8.77;;
12052;SDS011;6087;48.982;12.064;2023-08-06T00:17:08;10.68;;;9.57;;
12052;SDS011;6087;48.982;12.064;2023-08-06T00:19:35;10.90;;;9.82;;
12052;SDS011;6087;48.982;12.064;2023-08-06T00:22:02;11.63;;;10.02;;
12052;SDS011;6087;48.982;12.064;2023-08-06T00:24:32;10.23;;;9.15;;
12052;SDS011;6087;48.982;12.064;2023-08-06T00:27:03;11.13;;;9.88;;
12052;SDS011;6087;48.982;12.064;2023-08-06T00:29:31;9.68;;;8.68;;
12052;SDS011;6087;48.982;12.064;2023-08-06T00:32:03;9.43;;;8.25;;
12052;SDS011;6087;48.982;12.064;2023-08-06T00:34:30;8.77;;;7.88;;
12052;SDS011;6087;48.982;12.064;2023-08-06T00:36:57;9.07;;;8.13;;
12052;SDS011;6087;48.982;12.064;2023-08-06T00:39:24;9.50;;;8.38;;
12052;SDS011;6087;48.982;12.064;2023-08-06T00:41:51;9.27;;;8.43;;
12052;SDS011;6087;48.982;12.064;2023-08-06T00:44:19;8.90;;;8.02;;
12052;SDS011;6087;48.982;12.064;2023-08-06T00:46:46;9.05;;;8.02;;
12052;SDS011;6087;48.982;12.064;2023-08-06T00:49:13;12.45;;;8.23;;
12052;SDS011;6087;48.982;12.064;2023-08-06T00:51:40;10.20;;;9.20;;
12052;SDS011;6087;48.982;12.064;2023-08-06T00:54:08;8.85;;;7.75;;
12052;SDS011;6087;48.982;12.064;2023-08-06T00:56:35;8.63;;;7.82;;
12052;SDS011;6087;48.982;12.064;2023-08-06T00:59:03;9.07;;;8.25;;
12052;SDS011;6087;48.982;12.064;2023-08-06T01:01:33;8.10;;;7.40;;
12052;SDS011;6087;48.982;12.064;2023-08-06T01:04:00;8.38;;;7.68;;
12052;SDS011;6087;48.982;12.064;2023-08-06T01:06:30;8.00;;;7.22;;
12052;SDS011;6087;48.982;12.064;2023-08-06T01:09:03;8.40;;;7.63;;
12052;SDS011;6087;48.982;12.064;2023-08-06T01:11:44;7.80;;;7.10;;
12052;SDS011;6087;48.982;12.064;2023-08-06T01:14:23;7.50;;;6.60;;
12052;SDS011;6087;48.982;12.064;2023-08-06T01:17:02;6.32;;;5.72;;
12052;SDS011;6087;48.982;12.064;2023-08-06T01:19:30;6.97;;;5.97;;
12052;SDS011;6087;48.982;12.064;2023-08-06T01:21:59;6.40;;;5.85;;
12052;SDS011;6087;48.982;12.064;2023-08-06T01:24:25;6.38;;;5.78;;
12052;SDS011;6087;48.982;12.064;2023-08-06T01:26:55;6.25;;;5.75;;
12052;SDS011;6087;48.982;12.064;2023-08-06T01:29:31;6.30;;;5.70;;
12052;SDS011;6087;48.982;12.064;2023-08-06T01:32:04;7.03;;;6.15;;
12052;SDS011;6087;48.982;12.064;2023-08-06T01:34:34;5.60;;;5.05;;
12052;SDS011;6087;48.982;12.064;2023-08-06T01:37:05;4.40;;;4.00;;
12052;SDS011;6087;48.982;12.064;2023-08-06T01:39:32;4.00;;;3.55;;
12052;SDS011;6087;48.982;12.064;2023-08-06T01:41:59;5.18;;;2.70;;
12052;SDS011;6087;48.982;12.064;2023-08-06T01:44:26;3.70;;;2.15;;
12052;SDS011;6087;48.982;12.064;2023-08-06T01:46:53;2.40;;;2.17;;
12052;SDS011;6087;48.982;12.064;2023-08-06T01:49:20;3.20;;;2.50;;
12052;SDS011;6087;48.982;12.064;2023-08-06T01:51:47;3.35;;;2.55;;
12052;SDS011;6087;48.982;12.064;2023-08-06T01:54:15;2.40;;;2.30;;
12052;SDS011;6087;48.982;12.064;2023-08-06T01:56:42;2.35;;;2.15;;
12052;SDS011;6087;48.982;12.064;2023-08-06T01:59:09;2.47;;;2.28;;
12052;SDS011;6087;48.982;12.064;2023-08-06T02:01:36;2.38;;;2.17;;
12052;SDS011;6087;48.982;12.064;2023-08-06T02:04:03;2.90;;;2.22;;
12052;SDS011;6087;48.982;12.064;2023-08-06T02:06:30;2.42;;;2.13;;
12052;SDS011;6087;48.982;12.064;2023-08-06T02:08:57;2.53;;;2.05;;
12052;SDS011;6087;48.982;12.064;2023-08-06T02:11:25;2.10;;;1.98;;
12052;SDS011;6087;48.982;12.064;2023-08-06T02:13:55;3.15;;;2.95;;
12052;SDS011;6087;48.982;12.064;2023-08-06T02:16:22;3.17;;;2.38;;
12052;SDS011;6087;48.982;12.064;2023-08-06T02:18:52;2.33;;;1.95;;
12052;SDS011;6087;48.982;12.064;2023-08-06T02:21:19;2.60;;;2.03;;
12052;SDS011;6087;48.982;12.064;2023-08-06T02:23:45;2.28;;;2.15;;
12052;SDS011;6087;48.982;12.064;2023-08-06T02:26:12;2.88;;;2.63;;
12052;SDS011;6087;48.982;12.064;2023-08-06T02:28:40;3.17;;;2.00;;
12052;SDS011;6087;48.982;12.064;2023-08-06T02:31:07;2.15;;;2.03;;
12052;SDS011;6087;48.982;12.064;2023-08-06T02:33:34;3.50;;;2.17;;
12052;SDS011;6087;48.982;12.064;2023-08-06T02:36:01;2.15;;;2.00;;
12052;SDS011;6087;48.982;12.064;2023-08-06T02:38:29;2.60;;;2.40;;
12052;SDS011;6087;48.982;12.064;2023-08-06T02:40:56;2.53;;;2.33;;
12052;SDS011;6087;48.982;12.064;2023-08-06T02:43:23;2.90;;;2.50;;
12052;SDS011;6087;48.982;12.064;2023-08-06T02:45:51;3.20;;;2.00;;
12052;SDS011;6087;48.982;12.064;2023-08-06T02:48:18;3.83;;;2.60;;
12052;SDS011;6087;48.982;12.064;2023-08-06T02:50:45;2.42;;;2.10;;
12052;SDS011;6087;48.982;12.064;2023-08-06T02:53:12;2.25;;;2.05;;
12052;SDS011;6087;48.982;12.064;2023-08-06T02:55:44;2.38;;;2.08;;
12052;SDS011;6087;48.982;12.064;2023-08-06T02:58:12;2.22;;;2.03;;
12052;SDS011;6087;48.982;12.064;2023-08-06T03:00:39;2.47;;;2.15;;
12052;SDS011;6087;48.982;12.064;2023-08-06T03:03:08;3.65;;;2.28;;
12052;SDS011;6087;48.982;12.064;2023-08-06T03:05:35;3.53;;;2.50;;
12052;SDS011;6087;48.982;12.064;2023-08-06T03:08:02;2.72;;;2.53;;
12052;SDS011;6087;48.982;12.064;2023-08-06T03:10:29;3.40;;;2.28;;
12052;SDS011;6087;48.982;12.064;2023-08-06T03:12:56;2.50;;;2.30;;
12052;SDS011;6087;48.982;12.064;2023-08-06T03:15:22;2.75;;;2.55;;
12052;SDS011;6087;48.982;12.064;2023-08-06T03:17:49;4.05;;;2.28;;
12052;SDS011;6087;48.982;12.064;2023-08-06T03:20:18;2.78;;;2.53;;
12052;SDS011;6087;48.982;12.064;2023-08-06T03:22:44;3.03;;;2.10;;
12052;SDS011;6087;48.982;12.064;2023-08-06T03:25:14;2.38;;;2.17;;
12052;SDS011;6087;48.982;12.064;2023-08-06T03:27:40;5.22;;;2.53;;
12052;SDS011;6087;48.982;12.064;2023-08-06T03:30:13;3.45;;;2.30;;
12052;SDS011;6087;48.982;12.064;2023-08-06T03:32:39;3.15;;;2.10;;
12052;SDS011;6087;48.982;12.064;2023-08-06T03:35:07;2.60;;;2.40;;
12052;SDS011;6087;48.982;12.064;2023-08-06T03:37:41;2.97;;;2.75;;
12052;SDS011;6087;48.982;12.064;2023-08-06T03:40:08;4.15;;;2.70;;
12052;SDS011;6087;48.982;12.064;2023-08-06T03:42:36;4.78;;;2.83;;
12052;SDS011;6087;48.982;12.064;2023-08-06T03:45:03;3.33;;;2.35;;
12052;SDS011;6087;48.982;12.064;2023-08-06T03:47:31;2.63;;;2.38;;
12052;SDS011;6087;48.982;12.064;2023-08-06T03:50:01;3.55;;;2.78;;
12052;SDS011;6087;48.982;12.064;2023-08-06T03:52:28;4.53;;;2.50;;
12052;SDS011;6087;48.982;12.064;2023-08-06T03:54:56;2.72;;;2.42;;
12052;SDS011;6087;48.982;12.064;2023-08-06T03:57:23;4.53;;;2.30;;
12052;SDS011;6087;48.982;12.064;2023-08-06T03:59:57;2.67;;;2.47;;
12052;SDS011;6087;48.982;12.064;2023-08-06T04:02:24;3.90;;;2.47;;
12052;SDS011;6087;48.982;12.064;2023-08-06T04:04:56;1.92;;;1.83;;
12052;SDS011;6087;48.982;12.064;2023-08-06T04:07:28;2.20;;;2.10;;
12052;SDS011;6087;48.982;12.064;2023-08-06T04:09:58;3.08;;;1.95;;
12052;SDS011;6087;48.982;12.064;2023-08-06T04:12:25;3.92;;;2.40;;
12052;SDS011;6087;48.982;12.064;2023-08-06T04:14:57;2.03;;;1.92;;
12052;SDS011;6087;48.982;12.064;2023-08-06T04:17:24;3.20;;;2.50;;
12052;SDS011;6087;48.982;12.064;2023-08-06T04:19:52;2.30;;;2.17;;
12052;SDS011;6087;48.982;12.064;2023-08-06T04:22:20;3.30;;;2.05;;
12052;SDS011;6087;48.982;12.064;2023-08-06T04:24:48;2.60;;;2.33;;
12052;SDS011;6087;48.982;12.064;2023-08-06T04:27:17;2.50;;;2.30;;
12052;SDS011;6087;48.982;12.064;2023-08-06T04:29:45;3.10;;;2.75;;
12052;SDS011;6087;48.982;12.064;2023-08-06T04:32:12;4.80;;;2.90;;
12052;SDS011;6087;48.982;12.064;2023-08-06T04:34:39;2.80;;;2.60;;
12052;SDS011;6087;48.982;12.064;2023-08-06T04:37:09;3.10;;;2.80;;
12052;SDS011;6087;48.982;12.064;2023-08-06T04:39:39;5.90;;;3.10;;
12052;SDS011;6087;48.982;12.064;2023-08-06T04:42:06;3.15;;;2.50;;
12052;SDS011;6087;48.982;12.064;2023-08-06T04:44:34;3.80;;;2.35;;
12052;SDS011;6087;48.982;12.064;2023-08-06T04:47:01;5.32;;;3.30;;
12052;SDS011;6087;48.982;12.064;2023-08-06T04:49:28;2.70;;;2.47;;
12052;SDS011;6087;48.982;12.064;2023-08-06T04:51:55;2.47;;;2.28;;
12052;SDS011;6087;48.982;12.064;2023-08-06T04:54:22;3.55;;;2.60;;
12052;SDS011;6087;48.982;12.064;2023-08-06T04:56:49;2.83;;;2.63;;
12052;SDS011;6087;48.982;12.064;2023-08-06T04:59:15;3.35;;;2.80;;
12052;SDS011;6087;48.982;12.064;2023-08-06T05:01:44;2.67;;;2.47;;
12052;SDS011;6087;48.982;12.064;2023-08-06T05:04:11;2.53;;;2.10;;
12052;SDS011;6087;48.982;12.064;2023-08-06T05:06:37;2.60;;;2.15;;
12052;SDS011;6087;48.982;12.064;2023-08-06T05:09:05;2.72;;;2.15;;
12052;SDS011;6087;48.982;12.064;2023-08-06T05:11:32;2.97;;;2.65;;
12052;SDS011;6087;48.982;12.064;2023-08-06T05:13:59;4.10;;;2.10;;
12052;SDS011;6087;48.982;12.064;2023-08-06T05:16:26;2.83;;;2.10;;
12052;SDS011;6087;48.982;12.064;2023-08-06T05:18:54;2.83;;;2.03;;
12052;SDS011;6087;48.982;12.064;2023-08-06T05:21:21;2.00;;;1.80;;
12052;SDS011;6087;48.982;12.064;2023-08-06T05:23:48;2.63;;;2.40;;
12052;SDS011;6087;48.982;12.064;2023-08-06T05:26:15;2.15;;;2.00;;
12052;SDS011;6087;48.982;12.064;2023-08-06T05:28:43;2.53;;;1.90;;
12052;SDS011;6087;48.982;12.064;2023-08-06T05:31:15;2.22;;;1.90;;
12052;SDS011;6087;48.982;12.064;2023-08-06T05:33:42;2.08;;;1.90;;
12052;SDS011;6087;48.982;12.064;2023-08-06T05:36:13;1.98;;;1.88;;
12052;SDS011;6087;48.982;12.064;2023-08-06T05:38:40;2.42;;;2.20;;
12052;SDS011;6087;48.982;12.064;2023-08-06T05:41:07;2.10;;;1.88;;
12052;SDS011;6087;48.982;12.064;2023-08-06T05:43:34;2.72;;;2.53;;
12052;SDS011;6087;48.982;12.064;2023-08-06T05:46:00;3.00;;;2.13;;
12052;SDS011;6087;48.982;12.064;2023-08-06T05:48:27;2.75;;;2.08;;
12052;SDS011;6087;48.982;12.064;2023-08-06T05:50:54;2.15;;;2.05;;
12052;SDS011;6087;48.982;12.064;2023-08-06T05:53:23;2.65;;;2.13;;
12052;SDS011;6087;48.982;12.064;2023-08-06T05:55:50;2.60;;;2.40;;
12052;SDS011;6087;48.982;12.064;2023-08-06T05:58:16;3.15;;;2.95;;
12052;SDS011;6087;48.982;12.064;2023-08-06T06:00:45;3.40;;;3.10;;
12052;SDS011;6087;48.982;12.064;2023-08-06T06:03:12;4.15;;;3.30;;
12052;SDS011;6087;48.982;12.064;2023-08-06T06:05:39;3.90;;;3.60;;
12052;SDS011;6087;48.982;12.064;2023-08-06T06:08:05;4.03;;;3.70;;
12052;SDS011;6087;48.982;12.064;2023-08-06T06:10:34;4.90;;;3.60;;
12052;SDS011;6087;48.982;12.064;2023-08-06T06:13:01;5.13;;;4.63;;
12052;SDS011;6087;48.982;12.064;2023-08-06T06:15:28;5.93;;;4.07;;
12052;SDS011;6087;48.982;12.064;2023-08-06T06:17:55;4.82;;;3.95;;
12052;SDS011;6087;48.982;12.064;2023-08-06T06:20:23;4.53;;;3.67;;
12052;SDS011;6087;48.982;12.064;2023-08-06T06:22:49;5.00;;;4.50;;
12052;SDS011;6087;48.982;12.064;2023-08-06T06:25:16;4.80;;;4.40;;
12052;SDS011;6087;48.982;12.064;2023-08-06T06:27:45;5.32;;;4.82;;
12052;SDS011;6087;48.982;12.064;2023-08-06T06:30:12;5.15;;;4.60;;
12052;SDS011;6087;48.982;12.064;2023-08-06T06:32:39;5.72;;;5.15;;
12052;SDS011;6087;48.982;12.064;2023-08-06T06:35:07;5.40;;;4.97;;
12052;SDS011;6087;48.982;12.064;2023-08-06T06:37:34;5.75;;;5.20;;
12052;SDS011;6087;48.982;12.064;2023-08-06T06:40:01;5.50;;;4.90;;
12052;SDS011;6087;48.982;12.064;2023-08-06T06:42:28;5.80;;;5.20;;
12052;SDS011;6087;48.982;12.064;2023-08-06T06:44:59;6.22;;;5.28;;
12052;SDS011;6087;48.982;12.064;2023-08-06T06:47:26;5.63;;;5.00;;
12052;SDS011;6087;48.982;12.064;2023-08-06T06:49:53;6.03;;;5.47;;
12052;SDS011;6087;48.982;12.064;2023-08-06T06:52:20;6.45;;;5.70;;
12052;SDS011;6087;48.982;12.064;2023-08-06T06:54:47;5.57;;;5.07;;
12052;SDS011;6087;48.982;12.064;2023-08-06T06:57:13;5.40;;;4.90;;
12052;SDS011;6087;48.982;12.064;2023-08-06T06:59:43;7.68;;;4.80;;
12052;SDS011;6087;48.982;12.064;2023-08-06T07:02:12;5.10;;;4.70;;
12052;SDS011;6087;48.982;12.064;2023-08-06T07:04:39;6.10;;;4.03;;
12052;SDS011;6087;48.982;12.064;2023-08-06T07:07:05;4.32;;;3.97;;
12052;SDS011;6087;48.982;12.064;2023-08-06T07:09:32;3.92;;;3.55;;
12052;SDS011;6087;48.982;12.064;2023-08-06T07:11:59;4.15;;;3.75;;
12052;SDS011;6087;48.982;12.064;2023-08-06T07:14:26;4.68;;;3.40;;
12052;SDS011;6087;48.982;12.064;2023-08-06T07:16:54;4.05;;;3.70;;
12052;SDS011;6087;48.982;12.064;2023-08-06T07:19:23;3.85;;;3.50;;
12052;SDS011;6087;48.982;12.064;2023-08-06T07:21:50;3.83;;;3.25;;
12052;SDS011;6087;48.982;12.064;2023-08-06T07:24:16;4.03;;;3.58;;
12052;SDS011;6087;48.982;12.064;2023-08-06T07:26:43;5.15;;;3.72;;
12052;SDS011;6087;48.982;12.064;2023-08-06T07:29:10;3.83;;;3.53;;
12052;SDS011;6087;48.982;12.064;2023-08-06T07:31:37;3.70;;;3.38;;
12052;SDS011;6087;48.982;12.064;2023-08-06T07:34:04;3.28;;;3.05;;
12052;SDS011;6087;48.982;12.064;2023-08-06T07:36:32;3.03;;;2.72;;
12052;SDS011;6087;48.982;12.064;2023-08-06T07:38:59;3.38;;;3.08;;
12052;SDS011;6087;48.982;12.064;2023-08-06T07:41:26;6.28;;;3.00;;
12052;SDS011;6087;48.982;12.064;2023-08-06T07:43:54;4.93;;;2.90;;
12052;SDS011;6087;48.982;12.064;2023-08-06T07:46:20;2.78;;;2.50;;
12052;SDS011;6087;48.982;12.064;2023-08-06T07:48:47;2.60;;;2.40;;
12052;SDS011;6087;48.982;12.064;2023-08-06T07:51:14;2.88;;;2.33;;
12052;SDS011;6087;48.982;12.064;2023-08-06T07:53:42;1.95;;;1.85;;
12052;SDS011;6087;48.982;12.064;2023-08-06T07:56:10;1.85;;;1.75;;
12052;SDS011;6087;48.982;12.064;2023-08-06T07:58:37;2.47;;;2.13;;
12052;SDS011;6087;48.982;12.064;2023-08-06T08:01:07;2.00;;;1.90;;
12052;SDS011;6087;48.982;12.064;2023-08-06T08:03:36;1.80;;;1.70;;
12052;SDS011;6087;48.982;12.064;2023-08-06T08:06:03;3.50;;;1.80;;
12052;SDS011;6087;48.982;12.064;2023-08-06T08:08:30;4.25;;;1.60;;
12052;SDS011;6087;48.982;12.064;2023-08-06T08:10:58;1.73;;;1.60;;
12052;SDS011;6087;48.982;12.064;2023-08-06T08:13:25;2.20;;;1.80;;
12052;SDS011;6087;48.982;12.064;2023-08-06T08:15:58;1.48;;;1.38;;
12052;SDS011;6087;48.982;12.064;2023-08-06T08:18:25;4.28;;;1.75;;
12052;SDS011;6087;48.982;12.064;2023-08-06T08:20:59;2.25;;;2.05;;
12052;SDS011;6087;48.982;12.064;2023-08-06T08:23:29;4.60;;;2.28;;
12052;SDS011;6087;48.982;12.064;2023-08-06T08:25:59;2.05;;;1.85;;
12052;SDS011;6087;48.982;12.064;2023-08-06T08:28:28;2.47;;;2.05;;
12052;SDS011;6087;48.982;12.064;2023-08-06T08:30:56;3.50;;;2.17;;
12052;SDS011;6087;48.982;12.064;2023-08-06T08:33:23;3.03;;;2.22;;
12052;SDS011;6087;48.982;12.064;2023-08-06T08:35:53;2.13;;;1.95;;
12052;SDS011;6087;48.982;12.064;2023-08-06T08:38:20;2.40;;;2.20;;
12052;SDS011;6087;48.982;12.064;2023-08-06T08:40:51;2.13;;;1.88;;
12052;SDS011;6087;48.982;12.064;2023-08-06T08:43:21;1.98;;;1.70;;
12052;SDS011;6087;48.982;12.064;2023-08-06T08:45:52;2.58;;;1.80;;
12052;SDS011;6087;48.982;12.064;2023-08-06T08:48:23;2.30;;;2.10;;
12052;SDS011;6087;48.982;12.064;2023-08-06T08:50:52;1.67;;;1.58;;
12052;SDS011;6087;48.982;12.064;2023-08-06T08:53:19;3.33;;;2.15;;
12052;SDS011;6087;48.982;12.064;2023-08-06T08:55:49;2.05;;;1.75;;
12052;SDS011;6087;48.982;12.064;2023-08-06T08:58:16;1.80;;;1.70;;
12052;SDS011;6087;48.982;12.064;2023-08-06T09:00:45;2.78;;;1.40;;
12052;SDS011;6087;48.982;12.064;2023-08-06T09:03:13;1.55;;;1.45;;
12052;SDS011;6087;48.982;12.064;2023-08-06T09:05:41;2.38;;;1.75;;
12052;SDS011;6087;48.982;12.064;2023-08-06T09:08:11;1.83;;;1.38;;
12052;SDS011;6087;48.982;12.064;2023-08-06T09:10:41;1.83;;;1.23;;
12052;SDS011;6087;48.982;12.064;2023-08-06T09:13:17;1.27;;;1.23;;
12052;SDS011;6087;48.982;12.064;2023-08-06T09:15:49;1.63;;;1.40;;
12052;SDS011;6087;48.982;12.064;2023-08-06T09:18:24;1.60;;;1.45;;
12052;SDS011;6087;48.982;12.064;2023-08-06T09:20:52;1.35;;;1.00;;
12052;SDS011;6087;48.982;12.064;2023-08-06T09:23:25;1.42;;;1.33;;
12052;SDS011;6087;48.982;12.064;2023-08-06T09:25:54;1.67;;;1.38;;
12052;SDS011;6087;48.982;12.064;2023-08-06T09:28:21;1.40;;;1.00;;
12052;SDS011;6087;48.982;12.064;2023-08-06T09:30:52;1.30;;;1.17;;
12052;SDS011;6087;48.982;12.064;2023-08-06T09:33:20;2.05;;;1.30;;
12052;SDS011;6087;48.982;12.064;2023-08-06T09:35:48;1.38;;;1.10;;
12052;SDS011;6087;48.982;12.064;2023-08-06T09:38:15;0.80;;;0.80;;
12052;SDS011;6087;48.982;12.064;2023-08-06T09:40:42;1.00;;;0.90;;
12052;SDS011;6087;48.982;12.064;2023-08-06T09:43:09;1.85;;;0.93;;
12052;SDS011;6087;48.982;12.064;2023-08-06T09:45:39;1.23;;;1.10;;
12052;SDS011;6087;48.982;12.064;2023-08-06T09:48:12;1.30;;;0.90;;
12052;SDS011;6087;48.982;12.064;2023-08-06T09:50:38;1.45;;;0.88;;
12052;SDS011;6087;48.982;12.064;2023-08-06T09:53:06;0.95;;;0.52;;
12052;SDS011;6087;48.982;12.064;2023-08-06T09:55:37;1.60;;;0.55;;
12052;SDS011;6087;48.982;12.064;2023-08-06T09:58:04;1.05;;;0.50;;
12052;SDS011;6087;48.982;12.064;2023-08-06T10:00:33;0.45;;;0.40;;
12052;SDS011;6087;48.982;12.064;2023-08-06T10:03:00;0.68;;;0.68;;
12052;SDS011;6087;48.982;12.064;2023-08-06T10:05:28;1.98;;;0.98;;
12052;SDS011;6087;48.982;12.064;2023-08-06T10:08:03;1.25;;;0.95;;
12052;SDS011;6087;48.982;12.064;2023-08-06T10:10:33;0.90;;;0.90;;
12052;SDS011;6087;48.982;12.064;2023-08-06T10:13:00;4.18;;;0.95;;
12052;SDS011;6087;48.982;12.064;2023-08-06T10:15:29;1.80;;;0.82;;
12052;SDS011;6087;48.982;12.064;2023-08-06T10:17:58;1.50;;;1.33;;
12052;SDS011;6087;48.982;12.064;2023-08-06T10:20:28;1.15;;;0.98;;
12052;SDS011;6087;48.982;12.064;2023-08-06T10:23:00;1.17;;;1.08;;
12052;SDS011;6087;48.982;12.064;2023-08-06T10:25:30;1.73;;;1.08;;
12052;SDS011;6087;48.982;12.064;2023-08-06T10:27:58;2.55;;;1.30;;
12052;SDS011;6087;48.982;12.064;2023-08-06T10:30:26;2.80;;;0.80;;
12052;SDS011;6087;48.982;12.064;2023-08-06T10:32:54;0.60;;;0.60;;
12052;SDS011;6087;48.982;12.064;2023-08-06T10:35:30;1.13;;;0.60;;
12052;SDS011;6087;48.982;12.064;2023-08-06T10:38:04;1.77;;;0.60;;
12052;SDS011;6087;48.982;12.064;2023-08-06T10:40:33;0.95;;;0.75;;
12052;SDS011;6087;48.982;12.064;2023-08-06T10:42:59;0.52;;;0.52;;
12052;SDS011;6087;48.982;12.064;2023-08-06T10:45:26;0.68;;;0.65;;
12052;SDS011;6087;48.982;12.064;2023-08-06T10:47:55;0.40;;;0.40;;
12052;SDS011;6087;48.982;12.064;2023-08-06T10:50:23;0.43;;;0.43;;
12052;SDS011;6087;48.982;12.064;2023-08-06T10:52:52;0.40;;;0.40;;
12052;SDS011;6087;48.982;12.064;2023-08-06T10:55:22;0.90;;;0.65;;
12052;SDS011;6087;48.982;12.064;2023-08-06T10:57:50;1.05;;;0.40;;
12052;SDS011;6087;48.982;12.064;2023-08-06T11:00:17;0.60;;;0.20;;
12052;SDS011;6087;48.982;12.064;2023-08-06T11:02:44;0.30;;;0.30;;
12052;SDS011;6087;48.982;12.064;2023-08-06T11:05:13;1.85;;;0.38;;
12052;SDS011;6087;48.982;12.064;2023-08-06T11:07:40;0.22;;;0.20;;
12052;SDS011;6087;48.982;12.064;2023-08-06T11:10:11;0.25;;;0.25;;
12052;SDS011;6087;48.982;12.064;2023-08-06T11:12:39;0.10;;;0.10;;
12052;SDS011;6087;48.982;12.064;2023-08-06T11:15:06;0.10;;;0.10;;
12052;SDS011;6087;48.982;12.064;2023-08-06T11:17:34;1.23;;;0.30;;
12052;SDS011;6087;48.982;12.064;2023-08-06T11:20:01;0.20;;;0.20;;
12052;SDS011;6087;48.982;12.064;2023-08-06T11:22:30;0.22;;;0.22;;
12052;SDS011;6087;48.982;12.064;2023-08-06T11:24:57;0.95;;;0.40;;
12052;SDS011;6087;48.982;12.064;2023-08-06T11:27:27;0.77;;;0.45;;
12052;SDS011;6087;48.982;12.064;2023-08-06T11:29:54;0.50;;;0.50;;
12052;SDS011;6087;48.982;12.064;2023-08-06T11:32:21;1.90;;;0.20;;
12052;SDS011;6087;48.982;12.064;2023-08-06T11:34:48;0.10;;;0.10;;
12052;SDS011;6087;48.982;12.064;2023-08-06T11:37:15;0.20;;;0.20;;
12052;SDS011;6087;48.982;12.064;2023-08-06T11:39:44;0.65;;;0.13;;
12052;SDS011;6087;48.982;12.064;2023-08-06T11:42:13;0.20;;;0.20;;
12052;SDS011;6087;48.982;12.064;2023-08-06T11:44:42;0.65;;;0.57;;
12052;SDS011;6087;48.982;12.064;2023-08-06T11:47:12;0.05;;;0.05;;
12052;SDS011;6087;48.982;12.064;2023-08-06T11:49:40;0.10;;;0.10;;
12052;SDS011;6087;48.982;12.064;2023-08-06T11:52:10;0.10;;;0.10;;
12052;SDS011;6087;48.982;12.064;2023-08-06T11:54:42;0.20;;;0.20;;
12052;SDS011;6087;48.982;12.064;2023-08-06T11:57:10;0.20;;;0.20;;
12052;SDS011;6087;48.982;12.064;2023-08-06T11:59:37;0.57;;;0.17;;
12052;SDS011;6087;48.982;12.064;2023-08-06T12:02:07;0.65;;;0.22;;
12052;SDS011;6087;48.982;12.064;2023-08-06T12:04:57;0.25;;;0.10;;
12052;SDS011;6087;48.982;12.064;2023-08-06T12:07:29;0.20;;;0.20;;
12052;SDS011;6087;48.982;12.064;2023-08-06T12:10:02;0.20;;;0.10;;
12052;SDS011;6087;48.982;12.064;2023-08-06T12:12:35;0.10;;;0.10;;
12052;SDS011;6087;48.982;12.064;2023-08-06T12:15:03;3.38;;;0.20;;
12052;SDS011;6087;48.982;12.064;2023-08-06T12:17:32;1.55;;;0.30;;
12052;SDS011;6087;48.982;12.064;2023-08-06T12:19:59;1.20;;;0.17;;
12052;SDS011;6087;48.982;12.064;2023-08-06T12:22:26;0.17;;;0.05;;
12052;SDS011;6087;48.982;12.064;2023-08-06T12:24:56;0.10;;;0.10;;
12052;SDS011;6087;48.982;12.064;2023-08-06T12:27:23;0.05;;;0.05;;
12052;SDS011;6087;48.982;12.064;2023-08-06T12:29:56;0.20;;;0.20;;
12052;SDS011;6087;48.982;12.064;2023-08-06T12:32:23;0.10;;;0.10;;
12052;SDS011;6087;48.982;12.064;2023-08-06T12:34:51;0.00;;;0.00;;
12052;SDS011;6087;48.982;12.064;2023-08-06T12:37:18;0.00;;;0.00;;
12052;SDS011;6087;48.982;12.064;2023-08-06T12:39:45;0.05;;;0.03;;
12052;SDS011;6087;48.982;12.064;2023-08-06T12:42:12;1.77;;;0.10;;
12052;SDS011;6087;48.982;12.064;2023-08-06T12:44:39;0.22;;;0.00;;
12052;SDS011;6087;48.982;12.064;2023-08-06T12:47:06;0.08;;;0.00;;
12052;SDS011;6087;48.982;12.064;2023-08-06T12:49:33;0.73;;;0.10;;
12052;SDS011;6087;48.982;12.064;2023-08-06T12:52:02;0.08;;;0.00;;
12052;SDS011;6087;48.982;12.064;2023-08-06T12:54:31;0.88;;;0.08;;
12052;SDS011;6087;48.982;12.064;2023-08-06T12:57:01;0.20;;;0.20;;
12052;SDS011;6087;48.982;12.064;2023-08-06T12:59:29;0.20;;;0.10;;
12052;SDS011;6087;48.982;12.064;2023-08-06T13:01:55;0.70;;;0.25;;
12052;SDS011;6087;48.982;12.064;2023-08-06T13:04:22;1.60;;;0.20;;
12052;SDS011;6087;48.982;12.064;2023-08-06T13:06:49;0.20;;;0.10;;
12052;SDS011;6087;48.982;12.064;2023-08-06T13:09:17;1.10;;;0.20;;
12052;SDS011;6087;48.982;12.064;2023-08-06T13:11:45;0.25;;;0.10;;
12052;SDS011;6087;48.982;12.064;2023-08-06T13:14:15;0.10;;;0.10;;
12052;SDS011;6087;48.982;12.064;2023-08-06T13:16:42;0.20;;;0.20;;
12052;SDS011;6087;48.982;12.064;2023-08-06T13:19:09;0.00;;;0.00;;
12052;SDS011;6087;48.982;12.064;2023-08-06T13:21:58;0.10;;;0.10;;
12052;SDS011;6087;48.982;12.064;2023-08-06T13:24:28;0.45;;;0.30;;
12052;SDS011;6087;48.982;12.064;2023-08-06T13:26:55;0.82;;;0.10;;
12052;SDS011;6087;48.982;12.064;2023-08-06T13:29:22;0.40;;;0.10;;
12052;SDS011;6087;48.982;12.064;2023-08-06T13:31:49;0.10;;;0.10;;
12052;SDS011;6087;48.982;12.064;2023-08-06T13:34:16;0.25;;;0.20;;
12052;SDS011;6087;48.982;12.064;2023-08-06T13:36:42;0.00;;;0.00;;
12052;SDS011;6087;48.982;12.064;2023-08-06T13:39:12;0.00;;;0.00;;
12052;SDS011;6087;48.982;12.064;2023-08-06T13:41:46;0.00;;;0.00;;
12052;SDS011;6087;48.982;12.064;2023-08-06T13:44:13;0.10;;;0.10;;
12052;SDS011;6087;48.982;12.064;2023-08-06T13:46:40;0.00;;;0.00;;
12052;SDS011;6087;48.982;12.064;2023-08-06T13:49:07;0.10;;;0.10;;
12052;SDS011;6087;48.982;12.064;2023-08-06T13:51:34;0.00;;;0.00;;
12052;SDS011;6087;48.982;12.064;2023-08-06T13:54:02;0.80;;;0.20;;
12052;SDS011;6087;48.982;12.064;2023-08-06T13:56:29;0.10;;;0.10;;
12052;SDS011;6087;48.982;12.064;2023-08-06T13:59:00;0.00;;;0.00;;
12052;SDS011;6087;48.982;12.064;2023-08-06T14:01:27;0.05;;;0.05;;
12052;SDS011;6087;48.982;12.064;2023-08-06T14:03:54;0.10;;;0.10;;
12052;SDS011;6087;48.982;12.064;2023-08-06T14:06:21;0.00;;;0.00;;
12052;SDS011;6087;48.982;12.064;2023-08-06T14:08:48;0.10;;;0.10;;
12052;SDS011;6087;48.982;12.064;2023-08-06T14:11:15;1.25;;;0.03;;
12052;SDS011;6087;48.982;12.064;2023-08-06T14:13:42;1.48;;;0.20;;
12052;SDS011;6087;48.982;12.064;2023-08-06T14:16:13;0.03;;;0.03;;
12052;SDS011;6087;48.982;12.064;2023-08-06T14:18:40;0.08;;;0.08;;
12052;SDS011;6087;48.982;12.064;2023-08-06T14:21:06;0.20;;;0.05;;
12052;SDS011;6087;48.982;12.064;2023-08-06T14:23:33;0.10;;;0.10;;
12052;SDS011;6087;48.982;12.064;2023-08-06T14:26:00;1.00;;;0.13;;
12052;SDS011;6087;48.982;12.064;2023-08-06T14:28:27;1.08;;;0.10;;
12052;SDS011;6087;48.982;12.064;2023-08-06T14:30:54;0.10;;;0.10;;
12052;SDS011;6087;48.982;12.064;2023-08-06T14:33:22;0.00;;;0.00;;
12052;SDS011;6087;48.982;12.064;2023-08-06T14:35:49;0.05;;;0.05;;
12052;SDS011;6087;48.982;12.064;2023-08-06T14:38:16;0.03;;;0.00;;
12052;SDS011;6087;48.982;12.064;2023-08-06T14:40:43;0.40;;;0.10;;
12052;SDS011;6087;48.982;12.064;2023-08-06T14:43:10;0.00;;;0.00;;
12052;SDS011;6087;48.982;12.064;2023-08-06T14:45:37;0.00;;;0.00;;
12052;SDS011;6087;48.982;12.064;2023-08-06T14:48:05;0.68;;;0.00;;
12052;SDS011;6087;48.982;12.064;2023-08-06T14:50:33;1.02;;;0.13;;
12052;SDS011;6087;48.982;12.064;2023-08-06T14:53:00;0.10;;;0.10;;
12052;SDS011;6087;48.982;12.064;2023-08-06T14:55:28;0.00;;;0.00;;